Wakatake Maru — JL6603 — position and weather

sailwx.info

Track history (hours):
 
Tides and Currents Weather Stations Pressure Air Temp Water Temp Dewpoint Dewpoint Depression Visibility Wind Speed Wind Dir Waves Ship Positions

Wakatake Maru

Last reported at 2017-Oct-18 07:36 UTC. Time now 2017-Oct-19 05:35 UTC.
Position N 34°36' E 134°55'.

Length 73 m; draft 4 m.

Type: Cargo ship. MMSI: 431501662.

Date/timePositionNaut miles runAvg speedWind from/ knotsBaromVisibWave heightAir tempDewpointWater temp
2017-Oct-18 07:36N 34°36' E 134°55'312.6
2017-Oct-18 07:24N 34°37' E 134°58'410.7
2017-Oct-18 07:00N 34°36' E 135°03'612.0
2017-Oct-18 06:30N 34°37' E 135°10'510.5
2017-Oct-18 06:01N 34°40' E 135°15'1 1.4
2017-Oct-18 05:30N 34°41' E 135°15'0 0.0
2017-Oct-18 05:00N 34°41' E 135°15'0 0.0
2017-Oct-18 04:30N 34°41' E 135°15'4 7.9
2017-Oct-18 04:00N 34°39' E 135°19'510.0
2017-Oct-18 03:31N 34°38' E 135°25'0 0.1
2017-Oct-18 02:57N 34°38' E 135°25'0 0.7
2017-Oct-18 02:30N 34°37' E 135°25'1 2.5
2017-Oct-18 01:59N 34°37' E 135°23'3 5.5
2017-Oct-18 01:30N 34°38' E 135°20'510.7
2017-Oct-18 01:00N 34°40' E 135°14'0 0.2
2017-Oct-18 00:30N 34°40' E 135°14'0 0.8
2017-Oct-18 00:01N 34°40' E 135°14'0 0.0
2017-Oct-17 23:30N 34°40' E 135°14'2 3.4
2017-Oct-17 23:00N 34°41' E 135°13'1 0.0
2017-Oct-17 06:30N 34°41' E 135°13'3 6.1
2017-Oct-17 06:00N 34°39' E 135°15'611.4
2017-Oct-17 05:30N 34°36' E 135°09'712.2
2017-Oct-17 04:58N 34°37' E 135°01'  
2017-Oct-13 06:46N 34°36' E 134°56'413.4
2017-Oct-13 06:26N 34°37' E 135°02'512.6
2017-Oct-13 06:00N 34°36' E 135°08'612.0
2017-Oct-13 05:30N 34°38' E 135°15'1 2.1
2017-Oct-13 05:00N 34°39' E 135°15'0 0.0
2017-Oct-13 04:30N 34°39' E 135°15'0 0.0
2017-Oct-13 04:00N 34°39' E 135°15'0 0.0
2017-Oct-13 03:30N 34°39' E 135°15'0 0.0
2017-Oct-13 03:00N 34°39' E 135°15'0 0.3
2017-Oct-13 02:30N 34°39' E 135°15'0 0.4
2017-Oct-13 01:59N 34°39' E 135°15'0 0.5
2017-Oct-13 01:30N 34°39' E 135°15'2 4.0
2017-Oct-13 01:00N 34°41' E 135°17'0 0.3
2017-Oct-13 00:30N 34°41' E 135°17'1 2.1
2017-Oct-13 00:00N 34°41' E 135°15'0 0.0
2017-Oct-12 23:30N 34°41' E 135°15'2 4.6
2017-Oct-12 23:00N 34°39' E 135°15'0 0.0
2017-Oct-12 16:35N 34°39' E 135°15'0 0.2
2017-Oct-12 16:31N 34°39' E 135°15'510.2
2017-Oct-12 16:01N 34°36' E 135°10'611.2
2017-Oct-12 15:30N 34°36' E 135°03'12 0.3
2017-Oct-10 23:59N 34°41' E 135°17'2 5.1
2017-Oct-10 23:30N 34°39' E 135°15'0 0.0
2017-Oct-10 23:00N 34°39' E 135°15'0 0.0
2017-Oct-10 16:21N 34°38' E 135°15'2 5.8
2017-Oct-10 16:00N 34°37' E 135°13'612.0
2017-Oct-10 15:30N 34°35' E 135°06'9 0.3
2017-Oct-09 06:13N 34°36' E 134°55'310.7
2017-Oct-09 05:58N 34°37' E 134°58'5 8.7
2017-Oct-09 05:24N 34°36' E 135°04'511.5
2017-Oct-09 05:00N 34°37' E 135°09'611.1
2017-Oct-09 04:30N 34°39' E 135°15'1 2.5
2017-Oct-09 04:00N 34°40' E 135°14'0 0.0
2017-Oct-09 02:03N 34°40' E 135°14'0 0.0
2017-Oct-09 02:00N 34°40' E 135°14'2 3.7
2017-Oct-09 01:30N 34°39' E 135°16'611.1
2017-Oct-09 01:00N 34°38' E 135°23'2 4.4
2017-Oct-09 00:30N 34°38' E 135°25'0 0.0
2017-Oct-09 00:00N 34°38' E 135°25'2 3.6
2017-Oct-08 23:30N 34°38' E 135°23'  
Track history (hours):
 
Tides and Currents Weather Stations Pressure Air Temp Water Temp Dewpoint Dewpoint Depression Visibility Wind Speed Wind Dir Waves Ship Positions

Wakatake Maru

Last reported at 2017-Oct-18 07:36 UTC. Time now 2017-Oct-19 05:35 UTC.
Position N 34°36' E 134°55'.

Length 73 m; draft 4 m.

Type: Cargo ship. MMSI: 431501662.

Date/timePositionNaut miles runAvg speedWind from/ knotsBaromVisibWave heightAir tempDewpointWater temp
2017-Oct-18 07:36N 34°36' E 134°55'312.6
2017-Oct-18 07:24N 34°37' E 134°58'410.7
2017-Oct-18 07:00N 34°36' E 135°03'612.0
2017-Oct-18 06:30N 34°37' E 135°10'510.5
2017-Oct-18 06:01N 34°40' E 135°15'1 1.4
2017-Oct-18 05:30N 34°41' E 135°15'0 0.0
2017-Oct-18 05:00N 34°41' E 135°15'0 0.0
2017-Oct-18 04:30N 34°41' E 135°15'4 7.9
2017-Oct-18 04:00N 34°39' E 135°19'510.0
2017-Oct-18 03:31N 34°38' E 135°25'0 0.1
2017-Oct-18 02:57N 34°38' E 135°25'0 0.7
2017-Oct-18 02:30N 34°37' E 135°25'1 2.5
2017-Oct-18 01:59N 34°37' E 135°23'3 5.5
2017-Oct-18 01:30N 34°38' E 135°20'510.7
2017-Oct-18 01:00N 34°40' E 135°14'0 0.2
2017-Oct-18 00:30N 34°40' E 135°14'0 0.8
2017-Oct-18 00:01N 34°40' E 135°14'0 0.0
2017-Oct-17 23:30N 34°40' E 135°14'2 3.4
2017-Oct-17 23:00N 34°41' E 135°13'1 0.0
2017-Oct-17 06:30N 34°41' E 135°13'3 6.1
2017-Oct-17 06:00N 34°39' E 135°15'611.4
2017-Oct-17 05:30N 34°36' E 135°09'712.2
2017-Oct-17 04:58N 34°37' E 135°01'  
2017-Oct-13 06:46N 34°36' E 134°56'413.4
2017-Oct-13 06:26N 34°37' E 135°02'512.6
2017-Oct-13 06:00N 34°36' E 135°08'612.0
2017-Oct-13 05:30N 34°38' E 135°15'1 2.1
2017-Oct-13 05:00N 34°39' E 135°15'0 0.0
2017-Oct-13 04:30N 34°39' E 135°15'0 0.0
2017-Oct-13 04:00N 34°39' E 135°15'0 0.0
2017-Oct-13 03:30N 34°39' E 135°15'0 0.0
2017-Oct-13 03:00N 34°39' E 135°15'0 0.3
2017-Oct-13 02:30N 34°39' E 135°15'0 0.4
2017-Oct-13 01:59N 34°39' E 135°15'0 0.5
2017-Oct-13 01:30N 34°39' E 135°15'2 4.0
2017-Oct-13 01:00N 34°41' E 135°17'0 0.3
2017-Oct-13 00:30N 34°41' E 135°17'1 2.1
2017-Oct-13 00:00N 34°41' E 135°15'0 0.0
2017-Oct-12 23:30N 34°41' E 135°15'2 4.6
2017-Oct-12 23:00N 34°39' E 135°15'0 0.0
2017-Oct-12 16:35N 34°39' E 135°15'0 0.2
2017-Oct-12 16:31N 34°39' E 135°15'510.2
2017-Oct-12 16:01N 34°36' E 135°10'611.2
2017-Oct-12 15:30N 34°36' E 135°03'12 0.3
2017-Oct-10 23:59N 34°41' E 135°17'2 5.1
2017-Oct-10 23:30N 34°39' E 135°15'0 0.0
2017-Oct-10 23:00N 34°39' E 135°15'0 0.0
2017-Oct-10 16:21N 34°38' E 135°15'2 5.8
2017-Oct-10 16:00N 34°37' E 135°13'612.0
2017-Oct-10 15:30N 34°35' E 135°06'9 0.3
2017-Oct-09 06:13N 34°36' E 134°55'310.7
2017-Oct-09 05:58N 34°37' E 134°58'5 8.7
2017-Oct-09 05:24N 34°36' E 135°04'511.5
2017-Oct-09 05:00N 34°37' E 135°09'611.1
2017-Oct-09 04:30N 34°39' E 135°15'1 2.5
2017-Oct-09 04:00N 34°40' E 135°14'0 0.0
2017-Oct-09 02:03N 34°40' E 135°14'0 0.0
2017-Oct-09 02:00N 34°40' E 135°14'2 3.7
2017-Oct-09 01:30N 34°39' E 135°16'611.1
2017-Oct-09 01:00N 34°38' E 135°23'2 4.4
2017-Oct-09 00:30N 34°38' E 135°25'0 0.0
2017-Oct-09 00:00N 34°38' E 135°25'2 3.6
2017-Oct-08 23:30N 34°38' E 135°23'  

Dump ship's entire track history